DABT

Batna Airport

Batna, Algeria
METAR DABT 152000Z 09008KT 9999 FEW030 33/12 Q1019
Observed Flight Rules
Jul-15 @ 20:00 UTC (an hour ago) Visual Flight Rules
Wind Visibility Clouds
90° at 8 knots 10,000+ meters
  • Few at 3,000' AGL
Temperatures Readings
Current 33°C / 91°F
Dewpoint 12°C / 54°F
Humidity 28%
Altimeter 30.09" Hg
Pressure 1019 hPa
Elevation 823
METAR DABT 152000Z 09008KT 9999 FEW030 33/12 Q1019
Observed Flight Rules
Jul-15 @ 20:00 UTC
(an hour ago)
VFR
Wind Visibility
90° at 8 knots 10,000+ meters
Clouds
  • Few at 3,000' AGL
Temperature Dewpoint
33°C / 91°F 12°C / 54°F
Humidity Altimeter Pressure
28% 30.09" Hg 1019 hPa